Time;durP1;ratioP1;P1;durP2;ratioP2;P2;SDS_P1;SDS_P2;PMS_P1;PMS_P2;Temp;Humidity;BMP_temperature;BMP_pressure;BME280_temperature;BME280_humidity;BME280_pressure;Samples;Min_cycle;Max_cycle;Signal;HPM_P1;HPM_P2
2023/04/17 00:00:30;;;;;;;;;;;;;;;19.55;54.55;96361.86;611605;230;64900;-59
2023/04/17 00:02:59;;;;;;;;;;;;;;;19.56;53.78;96359.99;611594;230;62930;-59
2023/04/17 00:05:27;;;;;;;;;;;;;;;19.57;56.04;96369.59;611586;230;65044;-59
2023/04/17 00:07:55;;;;;;;;;;;;;;;19.56;56.48;96358.14;611582;230;64726;-59
2023/04/17 00:10:23;;;;;;;;;;;;;;;19.55;55.65;96358.41;612705;230;66889;-59
2023/04/17 00:12:50;;;;;;;;;;;;;;;19.54;55.71;96365.61;614813;230;67312;-59
2023/04/17 00:15:18;;;;;;;;;;;;;;;19.55;56.40;96361.86;614935;230;67432;-59
2023/04/17 00:17:45;;;;;;;;;;;;;;;19.54;55.29;96357.63;616300;230;63094;-59
2023/04/17 00:20:13;;;;;;;;;;;;;;;19.55;55.88;96361.86;615486;230;64881;-59
2023/04/17 00:22:41;;;;;;;;;;;;;;;19.54;54.84;96359.50;611985;230;67048;-59
2023/04/17 00:25:11;;;;;;;;;;;;;;;19.54;55.47;96365.61;614715;230;62912;-59
2023/04/17 00:27:38;;;;;;;;;;;;;;;19.54;55.53;96364.83;612751;229;63901;-59
2023/04/17 00:30:06;;;;;;;;;;;;;;;19.54;56.33;96367.48;615397;230;67180;-59
2023/04/17 00:32:34;;;;;;;;;;;;;;;19.54;54.77;96370.95;613291;230;63027;-59
2023/04/17 00:35:02;;;;;;;;;;;;;;;19.54;55.55;96364.83;616536;230;66746;-59
2023/04/17 00:37:30;;;;;;;;;;;;;;;19.54;54.58;96364.83;613015;230;64845;-59
2023/04/17 00:39:57;;;;;;;;;;;;;;;19.53;55.93;96356.01;611782;230;63661;-59
2023/04/17 00:42:25;;;;;;;;;;;;;;;19.52;54.82;96351.77;615116;230;68391;-59
2023/04/17 00:44:52;;;;;;;;;;;;;;;19.52;54.85;96357.09;613656;230;64921;-59
2023/04/17 00:47:21;;;;;;;;;;;;;;;19.54;54.76;96356.83;614108;230;62882;-59
2023/04/17 00:49:50;;;;;;;;;;;;;;;19.54;54.90;96362.95;611779;230;67043;-60
2023/04/17 00:52:20;;;;;;;;;;;;;;;19.53;55.15;96364.00;611587;230;65197;-59
2023/04/17 00:54:48;;;;;;;;;;;;;;;19.54;55.59;96362.16;611454;230;65159;-59
2023/04/17 00:57:15;;;;;;;;;;;;;;;19.52;55.44;96352.55;614384;230;67024;-59
2023/04/17 00:59:43;;;;;;;;;;;;;;;19.54;54.67;96354.16;616775;230;67095;-59
2023/04/17 01:02:11;;;;;;;;;;;;;;;19.53;55.40;96353.34;612318;230;65082;-59
2023/04/17 01:04:39;;;;;;;;;;;;;;;19.52;55.12;96347.22;615055;230;66963;-59
2023/04/17 01:07:06;;;;;;;;;;;;;;;19.52;56.47;96346.44;614659;230;66927;-59
2023/04/17 01:09:34;;;;;;;;;;;;;;;19.52;55.03;96346.44;612895;230;63809;-59
2023/04/17 01:12:18;;;;;;;;;;;;;;;19.52;55.59;96349.09;611672;230;64560;-59
2023/04/17 01:14:46;;;;;;;;;;;;;;;19.51;55.13;96342.19;613896;230;67066;-59
2023/04/17 01:17:18;;;;;;;;;;;;;;;19.50;55.84;96338.70;613523;230;43588;-59
2023/04/17 01:19:45;;;;;;;;;;;;;;;19.51;56.20;96339.52;611609;230;64851;-60
2023/04/17 01:22:15;;;;;;;;;;;;;;;19.51;56.17;96339.52;611539;231;64631;-59
2023/04/17 01:24:43;;;;;;;;;;;;;;;19.50;56.76;96337.91;611554;230;65433;-59
2023/04/17 01:27:12;;;;;;;;;;;;;;;19.50;57.01;96329.91;611592;230;67590;-59
2023/04/17 01:29:42;;;;;;;;;;;;;;;19.50;56.30;96335.24;611608;230;45921;-60
2023/04/17 01:32:10;;;;;;;;;;;;;;;19.48;55.20;96332.88;615913;230;65087;-59
2023/04/17 01:34:37;;;;;;;;;;;;;;;19.49;55.69;96336.33;611584;230;67582;-59
2023/04/17 01:37:05;;;;;;;;;;;;;;;19.49;55.88;96331.00;611594;230;67357;-58
2023/04/17 01:39:33;;;;;;;;;;;;;;;19.49;54.80;96328.33;611591;230;62379;-58
2023/04/17 01:42:00;;;;;;;;;;;;;;;19.49;56.10;96329.13;611548;230;65041;-58
2023/04/17 01:44:28;;;;;;;;;;;;;;;19.49;55.62;96331.00;611542;230;67464;-58
2023/04/17 01:46:56;;;;;;;;;;;;;;;19.49;56.23;96331.00;611625;230;65065;-60
2023/04/17 01:49:23;;;;;;;;;;;;;;;19.50;55.39;96335.24;611599;230;64413;-59
2023/04/17 01:51:51;;;;;;;;;;;;;;;19.50;55.57;96328.04;611570;230;65653;-57
2023/04/17 01:54:20;;;;;;;;;;;;;;;19.49;54.80;96328.33;611523;230;64870;-58
2023/04/17 01:56:47;;;;;;;;;;;;;;;19.49;54.85;96331.00;613403;230;67277;-58
2023/04/17 01:59:15;;;;;;;;;;;;;;;19.49;54.17;96329.13;613512;230;67974;-59
2023/04/17 02:01:42;;;;;;;;;;;;;;;19.50;54.66;96324.59;611582;230;64995;-59
2023/04/17 02:04:10;;;;;;;;;;;;;;;19.49;55.08;96329.13;606523;230;67188;-58
2023/04/17 02:06:37;;;;;;;;;;;;;;;19.50;54.82;96321.92;614745;230;64946;-58
2023/04/17 02:09:05;;;;;;;;;;;;;;;19.49;54.82;96331.79;614319;230;63005;-58
2023/04/17 02:11:32;;;;;;;;;;;;;;;19.50;53.77;96329.91;613134;230;67158;-58
2023/04/17 02:14:00;;;;;;;;;;;;;;;19.49;54.75;96336.33;611515;230;64495;-58
2023/04/17 02:16:30;;;;;;;;;;;;;;;19.50;54.46;96333.38;610862;232;43983;-59
2023/04/17 02:18:58;;;;;;;;;;;;;;;19.50;55.22;96321.92;610099;232;64897;-59
2023/04/17 02:21:26;;;;;;;;;;;;;;;19.49;54.49;96323.00;611554;230;66902;-59
2023/04/17 02:23:53;;;;;;;;;;;;;;;19.49;54.87;96328.33;611496;230;65063;-58
2023/04/17 02:26:22;;;;;;;;;;;;;;;19.49;55.13;96336.33;611556;230;67208;-59
2023/04/17 02:28:49;;;;;;;;;;;;;;;19.49;55.64;96333.66;611602;230;67297;-59
2023/04/17 02:31:17;;;;;;;;;;;;;;;19.48;55.37;96329.42;611610;230;65153;-59
2023/04/17 02:33:46;;;;;;;;;;;;;;;19.49;56.66;96326.46;611603;230;64589;-59
2023/04/17 02:36:13;;;;;;;;;;;;;;;19.48;55.18;96326.75;612542;230;66794;-59
2023/04/17 02:38:42;;;;;;;;;;;;;;;19.48;54.27;96329.42;611581;230;65660;-59
2023/04/17 02:41:10;;;;;;;;;;;;;;;19.48;53.67;96330.20;611585;231;67174;-59
2023/04/17 02:43:38;;;;;;;;;;;;;;;19.47;54.88;96325.14;611581;231;64851;-59
2023/04/17 02:46:05;;;;;;;;;;;;;;;19.48;53.86;96334.75;612019;230;64994;-58
2023/04/17 02:48:33;;;;;;;;;;;;;;;19.48;54.82;96337.41;614825;230;64724;-58
2023/04/17 02:51:00;;;;;;;;;;;;;;;19.47;54.14;96335.80;612185;230;67148;-59
2023/04/17 02:53:29;;;;;;;;;;;;;;;19.47;54.48;96333.93;615611;230;65655;-59
2023/04/17 02:55:57;;;;;;;;;;;;;;;19.48;54.71;96337.41;612251;230;64546;-58
2023/04/17 02:58:25;;;;;;;;;;;;;;;19.47;54.62;96333.14;611699;230;66705;-58
2023/04/17 03:00:54;;;;;;;;;;;;;;;19.47;54.30;96336.59;611603;230;64912;-58
2023/04/17 03:03:21;;;;;;;;;;;;;;;19.47;54.59;96328.60;614383;230;66595;-59
2023/04/17 03:05:49;;;;;;;;;;;;;;;19.47;53.86;96327.81;612495;230;67533;-58
2023/04/17 03:08:16;;;;;;;;;;;;;;;19.46;53.16;96335.02;611576;230;62920;-58
2023/04/17 03:10:46;;;;;;;;;;;;;;;19.47;53.42;96331.27;613437;230;67643;-59
2023/04/17 03:13:13;;;;;;;;;;;;;;;19.47;53.92;96335.80;616630;230;64717;-59
2023/04/17 03:15:41;;;;;;;;;;;;;;;19.48;53.38;96337.41;612898;230;65213;-59
2023/04/17 03:18:08;;;;;;;;;;;;;;;19.47;53.54;96327.81;615442;230;66752;-59
2023/04/17 03:20:36;;;;;;;;;;;;;;;19.47;53.40;96330.47;611628;230;64420;-59
2023/04/17 03:23:03;;;;;;;;;;;;;;;19.47;53.48;96333.14;611636;231;63863;-59
2023/04/17 03:25:31;;;;;;;;;;;;;;;19.47;53.07;96333.14;611607;230;67232;-59
2023/04/17 03:27:59;;;;;;;;;;;;;;;19.47;53.41;96333.14;615343;230;67829;-58
2023/04/17 03:30:29;;;;;;;;;;;;;;;19.48;53.00;96337.41;611567;230;42809;-59
2023/04/17 03:32:57;;;;;;;;;;;;;;;19.47;52.59;96327.81;611587;230;67596;-58
2023/04/17 03:35:26;;;;;;;;;;;;;;;19.47;53.24;96333.14;611641;230;45661;-59
2023/04/17 03:37:54;;;;;;;;;;;;;;;19.46;52.86;96324.36;611552;230;62742;-59
2023/04/17 03:40:22;;;;;;;;;;;;;;;19.46;53.22;96318.23;611571;230;67172;-59
2023/04/17 03:42:50;;;;;;;;;;;;;;;19.46;53.56;96326.23;611585;230;64912;-59
2023/04/17 03:45:17;;;;;;;;;;;;;;;19.47;53.36;96322.48;614374;230;62788;-59
2023/04/17 03:47:46;;;;;;;;;;;;;;;19.46;53.25;96327.02;612619;230;67245;-59
2023/04/17 03:50:14;;;;;;;;;;;;;;;19.46;52.71;96321.69;611600;230;67162;-59
2023/04/17 03:52:44;;;;;;;;;;;;;;;19.46;52.64;96320.90;611340;230;47696;-59
2023/04/17 03:55:11;;;;;;;;;;;;;;;19.46;52.65;96324.36;614481;230;64712;-59
2023/04/17 03:57:39;;;;;;;;;;;;;;;19.46;53.04;96329.69;606894;231;69627;-59
2023/04/17 04:00:11;;;;;;;;;;;;;;;19.46;52.11;96339.55;615895;230;62687;-59
2023/04/17 04:02:49;;;;;;;;;;;;;;;19.47;52.45;96341.13;614157;230;49851;-59
2023/04/17 04:05:19;;;;;;;;;;;;;;;19.46;52.33;96344.88;611544;230;45665;-59
2023/04/17 04:07:47;;;;;;;;;;;;;;;19.46;52.12;96342.22;612542;230;62342;-59
2023/04/17 04:10:16;;;;;;;;;;;;;;;19.46;53.03;96348.34;611430;230;45711;-59
2023/04/17 04:12:43;;;;;;;;;;;;;;;19.46;52.49;96355.54;611604;230;67504;-59
2023/04/17 04:15:12;;;;;;;;;;;;;;;19.45;53.56;96356.59;611671;230;62745;-59
2023/04/17 04:17:41;;;;;;;;;;;;;;;19.46;52.13;96363.53;611638;230;67413;-59
2023/04/17 04:20:10;;;;;;;;;;;;;;;19.46;51.75;96363.53;611489;230;64516;-59
2023/04/17 04:22:37;;;;;;;;;;;;;;;19.45;52.58;96360.08;611588;230;65110;-59
2023/04/17 04:25:06;;;;;;;;;;;;;;;19.45;51.99;96365.41;611569;230;67191;-59
2023/04/17 04:27:36;;;;;;;;;;;;;;;19.46;52.49;96360.88;614629;230;44766;-59
2023/04/17 04:30:04;;;;;;;;;;;;;;;19.44;52.23;96355.80;613443;230;65692;-59
2023/04/17 04:32:33;;;;;;;;;;;;;;;19.44;52.44;96355.80;615293;229;44811;-59
2023/04/17 04:35:01;;;;;;;;;;;;;;;19.44;52.41;96358.47;613841;230;67006;-59
2023/04/17 04:37:31;;;;;;;;;;;;;;;19.44;52.08;96355.80;613150;230;62650;-59
2023/04/17 04:40:09;;;;;;;;;;;;;;;19.44;51.93;96349.69;611818;230;45801;-59
2023/04/17 04:42:40;;;;;;;;;;;;;;;19.44;52.05;96353.14;616767;230;45468;-59
2023/04/17 04:45:12;;;;;;;;;;;;;;;19.45;52.60;96362.74;614140;230;48260;-60
2023/04/17 04:47:41;;;;;;;;;;;;;;;19.44;52.22;96357.67;615403;230;67784;-60
2023/04/17 04:50:08;;;;;;;;;;;;;;;19.44;51.57;96363.80;611786;230;64677;-60
2023/04/17 04:52:36;;;;;;;;;;;;;;;19.44;53.01;96365.67;613031;230;65886;-60
2023/04/17 04:55:07;;;;;;;;;;;;;;;19.44;51.62;96365.67;613751;230;44109;-60
2023/04/17 04:57:35;;;;;;;;;;;;;;;19.44;51.64;96365.67;611627;230;66995;-60
2023/04/17 05:00:08;;;;;;;;;;;;;;;19.44;51.89;96365.67;611520;230;65126;-59
2023/04/17 05:02:35;;;;;;;;;;;;;;;19.43;51.95;96359.55;611635;230;47620;-60
2023/04/17 05:05:03;;;;;;;;;;;;;;;19.44;52.09;96352.34;612258;230;66756;-60
2023/04/17 05:07:32;;;;;;;;;;;;;;;19.44;51.79;96349.69;611553;230;62901;-60
2023/04/17 05:10:00;;;;;;;;;;;;;;;19.43;51.74;96348.89;611532;230;67663;-60
2023/04/17 05:12:28;;;;;;;;;;;;;;;19.43;51.27;96348.89;611571;230;67315;-60
2023/04/17 05:14:55;;;;;;;;;;;;;;;19.43;52.18;96345.44;611550;230;64994;-60
2023/04/17 05:17:23;;;;;;;;;;;;;;;19.45;51.69;96359.26;614529;230;67152;-60
2023/04/17 05:19:50;;;;;;;;;;;;;;;19.43;51.55;96356.09;616757;230;64941;-60
2023/04/17 05:22:20;;;;;;;;;;;;;;;19.43;51.43;96348.10;616272;230;66155;-60
2023/04/17 05:24:58;;;;;;;;;;;;;;;19.43;51.47;96351.55;614607;230;45746;-59
2023/04/17 05:27:26;;;;;;;;;;;;;;;19.44;50.94;96355.02;612013;229;67502;-59
2023/04/17 05:29:54;;;;;;;;;;;;;;;19.44;51.48;96357.67;611540;230;65006;-59
2023/04/17 05:32:22;;;;;;;;;;;;;;;19.43;51.05;96366.75;611591;230;64115;-59
2023/04/17 05:34:54;;;;;;;;;;;;;;;19.44;51.10;96365.67;611543;230;45656;-59
2023/04/17 05:37:23;;;;;;;;;;;;;;;19.43;51.18;96361.42;614553;230;43757;-59
2023/04/17 05:39:51;;;;;;;;;;;;;;;19.43;51.47;96358.77;612412;230;68256;-59
2023/04/17 05:42:18;;;;;;;;;;;;;;;19.43;51.18;96358.77;614938;230;67009;-59
2023/04/17 05:44:46;;;;;;;;;;;;;;;19.43;52.07;96364.09;612014;230;62946;-59
2023/04/17 05:47:13;;;;;;;;;;;;;;;19.43;50.94;96367.55;614758;230;64953;-59
2023/04/17 05:49:42;;;;;;;;;;;;;;;19.43;51.78;96374.75;613689;230;65660;-59
2023/04/17 05:52:10;;;;;;;;;;;;;;;19.43;51.17;96367.55;612183;230;64986;-59
2023/04/17 05:54:39;;;;;;;;;;;;;;;19.43;51.00;96364.09;615120;230;44106;-59
2023/04/17 05:57:08;;;;;;;;;;;;;;;19.42;51.41;96368.59;614590;230;67000;-59
2023/04/17 05:59:37;;;;;;;;;;;;;;;19.42;50.91;96373.93;610898;230;45197;-59
2023/04/17 06:02:06;;;;;;;;;;;;;;;19.43;51.08;96366.75;612697;230;67718;-59
2023/04/17 06:04:34;;;;;;;;;;;;;;;19.41;51.19;96364.35;615409;230;65007;-59
2023/04/17 06:07:04;;;;;;;;;;;;;;;19.42;50.79;96373.14;611576;230;65022;-59
2023/04/17 06:09:32;;;;;;;;;;;;;;;19.42;50.85;96362.48;614728;230;67300;-59
2023/04/17 06:12:00;;;;;;;;;;;;;;;19.38;53.55;96364.91;612075;230;65015;-58
2023/04/17 06:14:27;;;;;;;;;;;;;;;19.39;51.58;96363.03;611577;230;65054;-58
2023/04/17 06:16:55;;;;;;;;;;;;;;;19.39;53.89;96363.03;613627;230;67089;-59
2023/04/17 06:19:23;;;;;;;;;;;;;;;19.39;50.53;96371.82;613389;230;64703;-59
2023/04/17 06:21:50;;;;;;;;;;;;;;;19.41;48.72;96368.89;612566;230;65136;-59
2023/04/17 06:24:19;;;;;;;;;;;;;;;19.43;48.60;96369.42;614916;230;65791;-59
2023/04/17 06:26:47;;;;;;;;;;;;;;;19.43;48.89;96380.87;611508;230;67763;-59
2023/04/17 06:29:15;;;;;;;;;;;;;;;19.43;49.41;96370.21;611641;230;65802;-59
2023/04/17 06:31:43;;;;;;;;;;;;;;;19.45;49.65;96378.73;615166;230;67738;-59
2023/04/17 06:34:11;;;;;;;;;;;;;;;19.45;49.49;96385.91;612321;230;67432;-59
2023/04/17 06:36:40;;;;;;;;;;;;;;;19.45;49.25;96391.23;616295;230;42490;-59
2023/04/17 06:39:08;;;;;;;;;;;;;;;19.45;50.08;96399.23;616609;230;64382;-59
2023/04/17 06:41:36;;;;;;;;;;;;;;;19.46;52.20;96400.84;616435;230;65757;-59
2023/04/17 06:44:03;;;;;;;;;;;;;;;19.45;51.09;96393.91;615954;230;65089;-58
2023/04/17 06:46:33;;;;;;;;;;;;;;;19.45;50.74;96392.06;609981;230;47554;-59
2023/04/17 06:49:02;;;;;;;;;;;;;;;19.45;51.38;96392.06;611614;230;44212;-59
2023/04/17 06:51:30;;;;;;;;;;;;;;;19.46;51.33;96392.84;611585;230;65068;-59
2023/04/17 06:53:58;;;;;;;;;;;;;;;19.45;51.25;96378.73;611716;230;64984;-59
2023/04/17 06:56:27;;;;;;;;;;;;;;;19.46;50.94;96379.52;616276;230;64829;-59
2023/04/17 06:58:56;;;;;;;;;;;;;;;19.46;51.19;96382.98;616258;230;64878;-59
2023/04/17 07:01:23;;;;;;;;;;;;;;;19.46;51.59;96390.19;613376;230;64862;-59
2023/04/17 07:03:51;;;;;;;;;;;;;;;19.46;50.39;96390.19;615399;230;67097;-59
2023/04/17 07:06:18;;;;;;;;;;;;;;;19.46;50.04;96390.19;609413;231;66670;-59
2023/04/17 07:08:46;;;;;;;;;;;;;;;19.46;50.38;96393.64;612386;230;64740;-59
2023/04/17 07:11:13;;;;;;;;;;;;;;;19.47;50.42;96391.77;611604;231;66908;-59
2023/04/17 07:13:40;;;;;;;;;;;;;;;19.47;51.09;96399.76;611625;230;63068;-59
2023/04/17 07:16:08;;;;;;;;;;;;;;;19.45;51.36;96400.05;612007;230;66968;-59
2023/04/17 07:18:36;;;;;;;;;;;;;;;19.47;50.75;96403.22;614916;230;66804;-59
2023/04/17 07:21:03;;;;;;;;;;;;;;;19.47;50.82;96411.20;613939;230;65053;-59
2023/04/17 07:23:31;;;;;;;;;;;;;;;19.48;50.98;96414.70;616280;230;66962;-59
2023/04/17 07:25:58;;;;;;;;;;;;;;;19.48;50.71;96409.37;612187;230;66817;-59
2023/04/17 07:28:26;;;;;;;;;;;;;;;19.49;49.68;96413.61;611618;230;65013;-59
2023/04/17 07:30:53;;;;;;;;;;;;;;;19.49;49.83;96416.28;611611;230;66997;-59
2023/04/17 07:33:21;;;;;;;;;;;;;;;19.49;50.75;96413.61;614431;230;66766;-59
2023/04/17 07:35:48;;;;;;;;;;;;;;;19.50;50.10;96423.19;612595;230;65040;-59
2023/04/17 07:38:16;;;;;;;;;;;;;;;19.49;49.70;96424.27;613265;230;67193;-59
2023/04/17 07:40:43;;;;;;;;;;;;;;;19.49;50.32;96425.06;616250;230;67349;-59
2023/04/17 07:43:11;;;;;;;;;;;;;;;19.50;49.56;96434.64;613784;230;63044;-59
2023/04/17 07:45:38;;;;;;;;;;;;;;;19.50;49.96;96431.19;611591;230;64916;-59
2023/04/17 07:48:06;;;;;;;;;;;;;;;19.50;49.54;96434.64;611581;230;66994;-59
2023/04/17 07:50:33;;;;;;;;;;;;;;;19.50;49.56;96431.98;612824;230;65162;-59
2023/04/17 07:53:01;;;;;;;;;;;;;;;19.50;49.87;96433.85;614106;230;67223;-59
2023/04/17 07:55:28;;;;;;;;;;;;;;;19.50;49.28;96444.52;611546;230;66848;-59
2023/04/17 07:57:56;;;;;;;;;;;;;;;19.49;49.68;96448.25;612572;230;65112;-59
2023/04/17 08:00:24;;;;;;;;;;;;;;;19.51;49.21;96451.45;611595;230;66926;-59
2023/04/17 08:02:51;;;;;;;;;;;;;;;19.51;48.86;96452.24;611629;230;66934;-59
2023/04/17 08:05:20;;;;;;;;;;;;;;;19.51;48.96;96451.45;611361;230;41986;-59
2023/04/17 08:07:48;;;;;;;;;;;;;;;19.51;48.89;96449.58;611552;230;65195;-59
2023/04/17 08:10:15;;;;;;;;;;;;;;;19.51;49.04;96452.24;611521;230;66887;-59
2023/04/17 08:12:43;;;;;;;;;;;;;;;19.52;48.95;96453.03;611595;230;63817;-59
2023/04/17 08:15:11;;;;;;;;;;;;;;;19.52;49.18;96445.04;614120;230;67242;-59
2023/04/17 08:17:38;;;;;;;;;;;;;;;19.52;49.17;96453.83;612844;230;66973;-59
2023/04/17 08:20:07;;;;;;;;;;;;;;;19.52;48.90;96447.70;611537;230;65021;-59
2023/04/17 08:22:36;;;;;;;;;;;;;;;19.53;48.85;96449.29;611588;230;67220;-59
2023/04/17 08:25:08;;;;;;;;;;;;;;;19.52;48.87;96443.16;611560;230;67122;-59
2023/04/17 08:27:32;;;;;;;;;;;;;;;19.52;49.08;96442.37;612372;230;62985;-59
2023/04/17 08:30:00;;;;;;;;;;;;;;;19.53;48.80;96443.95;615514;230;67220;-58
2023/04/17 08:32:28;;;;;;;;;;;;;;;19.52;48.70;96437.05;612668;230;65058;-59
2023/04/17 08:34:57;;;;;;;;;;;;;;;19.53;48.87;96443.95;616264;230;65070;-59
2023/04/17 08:37:27;;;;;;;;;;;;;;;19.53;49.02;96443.95;613355;230;67340;-59
2023/04/17 08:39:54;;;;;;;;;;;;;;;19.52;48.86;96445.04;611559;230;67099;-57
2023/04/17 08:42:22;;;;;;;;;;;;;;;19.52;48.87;96443.16;611646;230;65043;-59
2023/04/17 08:44:49;;;;;;;;;;;;;;;19.51;49.08;96441.58;611566;230;67290;-59
2023/04/17 08:47:19;;;;;;;;;;;;;;;19.52;49.23;96442.37;611479;230;67045;-59
2023/04/17 08:49:49;;;;;;;;;;;;;;;19.52;49.21;96432.50;612517;230;65192;-59
2023/04/17 08:52:15;;;;;;;;;;;;;;;19.52;49.19;96435.17;611534;230;67197;-59
2023/04/17 08:54:43;;;;;;;;;;;;;;;19.51;49.34;96430.92;613164;230;65245;-59
2023/04/17 08:57:10;;;;;;;;;;;;;;;19.53;49.29;96435.96;613789;230;63723;-59
2023/04/17 08:59:38;;;;;;;;;;;;;;;19.52;49.21;96435.17;614898;230;67276;-59
2023/04/17 09:02:06;;;;;;;;;;;;;;;19.52;49.02;96437.05;615873;230;64939;-59
2023/04/17 09:04:44;;;;;;;;;;;;;;;19.52;49.27;96424.51;610962;232;63104;-59
2023/04/17 09:07:12;;;;;;;;;;;;;;;19.52;49.18;96432.50;603186;233;67269;-59
2023/04/17 09:09:47;;;;;;;;;;;;;;;19.52;49.06;96427.17;595416;236;67161;-59
2023/04/17 09:12:15;;;;;;;;;;;;;;;19.52;49.27;96429.84;595594;235;63027;-59
2023/04/17 09:14:43;;;;;;;;;;;;;;;19.53;49.36;96441.30;606732;231;64619;-59
2023/04/17 09:17:10;;;;;;;;;;;;;;;19.52;49.20;96440.50;612628;231;67073;-59
2023/04/17 09:19:38;;;;;;;;;;;;;;;19.53;49.40;96443.95;613043;231;65117;-59
2023/04/17 09:22:22;;;;;;;;;;;;;;;19.52;49.04;96431.72;611988;231;67509;-59
2023/04/17 09:24:50;;;;;;;;;;;;;;;19.52;49.05;96437.05;611035;230;66999;-59
2023/04/17 09:27:21;;;;;;;;;;;;;;;19.54;48.87;96437.57;611064;230;65106;-59
2023/04/17 09:30:02;;;;;;;;;;;;;;;19.54;49.28;96434.91;611481;231;67360;-59
2023/04/17 09:32:30;;;;;;;;;;;;;;;19.54;49.60;96439.45;611457;231;66999;-59
2023/04/17 09:34:59;;;;;;;;;;;;;;;19.53;49.46;96441.30;610960;231;66063;-59
2023/04/17 09:37:28;;;;;;;;;;;;;;;19.53;49.23;96441.30;611033;231;67285;-59
2023/04/17 09:40:00;;;;;;;;;;;;;;;19.52;49.26;96435.17;610223;232;67167;-58
2023/04/17 09:42:28;;;;;;;;;;;;;;;19.52;49.24;96442.37;611066;230;62953;-59
2023/04/17 09:44:56;;;;;;;;;;;;;;;19.52;49.36;96439.70;611008;230;67299;-59
2023/04/17 09:47:24;;;;;;;;;;;;;;;19.53;49.39;96443.95;611278;231;67046;-59
2023/04/17 09:49:52;;;;;;;;;;;;;;;19.53;49.26;96441.30;612115;231;65105;-60
2023/04/17 09:52:22;;;;;;;;;;;;;;;19.53;49.41;96441.30;613645;230;65120;-60
2023/04/17 09:54:52;;;;;;;;;;;;;;;19.54;49.51;96442.91;611568;231;67095;-60
2023/04/17 09:57:20;;;;;;;;;;;;;;;19.52;49.04;96440.50;611451;231;65149;-60
2023/04/17 09:59:48;;;;;;;;;;;;;;;19.53;50.59;96438.62;611421;232;68550;-60
2023/04/17 10:02:18;;;;;;;;;;;;;;;19.52;50.15;96437.05;612614;231;66837;-60
2023/04/17 10:04:46;;;;;;;;;;;;;;;19.52;50.11;96434.37;611381;232;65127;-60
2023/04/17 10:07:15;;;;;;;;;;;;;;;19.52;49.38;96435.17;611125;231;65032;-60
2023/04/17 10:09:48;;;;;;;;;;;;;;;19.52;50.08;96432.50;611213;230;67540;-60
2023/04/17 10:12:14;;;;;;;;;;;;;;;19.52;49.79;96432.50;610670;231;62686;-60
2023/04/17 10:14:45;;;;;;;;;;;;;;;19.53;49.58;96433.30;611628;231;65178;-60
2023/04/17 10:17:27;;;;;;;;;;;;;;;19.52;49.89;96423.72;611103;231;64571;-60
2023/04/17 10:19:55;;;;;;;;;;;;;;;19.52;49.58;96426.38;611079;232;63076;-60
2023/04/17 10:22:24;;;;;;;;;;;;;;;19.52;49.40;96424.51;610947;232;67235;-59
2023/04/17 10:24:53;;;;;;;;;;;;;;;19.52;49.66;96421.84;611036;231;66911;-60
2023/04/17 10:27:30;;;;;;;;;;;;;;;19.52;49.45;96426.38;610326;232;63196;-60
2023/04/17 10:29:59;;;;;;;;;;;;;;;19.53;49.17;96422.63;610963;231;67049;-60
2023/04/17 10:32:28;;;;;;;;;;;;;;;19.52;48.92;96419.18;612551;231;67086;-59
2023/04/17 10:34:59;;;;;;;;;;;;;;;19.54;49.29;96418.13;611545;231;65011;-60
2023/04/17 10:37:45;;;;;;;;;;;;;;;19.52;49.59;96418.39;611425;230;67523;-60
2023/04/17 10:40:19;;;;;;;;;;;;;;;19.54;49.38;96421.58;611145;231;67109;-60
2023/04/17 10:42:44;;;;;;;;;;;;;;;19.54;48.52;96413.59;610878;232;65028;-60
2023/04/17 10:45:19;;;;;;;;;;;;;;;19.55;48.43;96415.17;610736;232;64916;-60
2023/04/17 10:47:47;;;;;;;;;;;;;;;19.55;48.27;96404.51;611698;231;67088;-60
2023/04/17 10:50:16;;;;;;;;;;;;;;;19.56;48.29;96414.12;610063;230;63044;-60
2023/04/17 10:52:44;;;;;;;;;;;;;;;19.58;48.32;96411.16;613846;230;67213;-60
2023/04/17 10:55:16;;;;;;;;;;;;;;;19.58;48.23;96419.16;612875;231;64962;-60
2023/04/17 10:57:54;;;;;;;;;;;;;;;19.58;48.28;96419.95;611872;231;65108;-60
2023/04/17 11:00:23;;;;;;;;;;;;;;;19.60;48.29;96415.14;613303;230;67243;-58
2023/04/17 11:02:51;;;;;;;;;;;;;;;19.61;48.42;96411.39;613392;230;67084;-59
2023/04/17 11:05:20;;;;;;;;;;;;;;;19.62;48.42;96412.21;611434;231;62919;-59
2023/04/17 11:07:52;;;;;;;;;;;;;;;19.64;48.52;96400.20;611041;231;45773;-59
2023/04/17 11:10:20;;;;;;;;;;;;;;;19.64;48.69;96397.54;611584;230;65088;-58
2023/04/17 11:12:55;;;;;;;;;;;;;;;19.65;48.83;96391.13;606450;231;43676;-59
2023/04/17 11:15:31;;;;;;;;;;;;;;;19.65;48.76;96393.00;611223;231;70380;-59
2023/04/17 11:17:59;;;;;;;;;;;;;;;19.68;48.89;96397.80;611311;230;66308;-57
2023/04/17 11:20:28;;;;;;;;;;;;;;;19.69;48.89;96392.18;611025;230;63059;-58
2023/04/17 11:22:57;;;;;;;;;;;;;;;19.70;48.82;96390.33;611212;231;66927;-58
2023/04/17 11:25:26;;;;;;;;;;;;;;;19.71;48.82;96386.58;611800;231;67076;-58
2023/04/17 11:27:55;;;;;;;;;;;;;;;19.72;48.38;96378.32;611925;231;65117;-58
2023/04/17 11:30:30;;;;;;;;;;;;;;;19.73;48.32;96381.78;605745;232;64630;-58
2023/04/17 11:33:01;;;;;;;;;;;;;;;19.76;48.41;96377.77;611149;231;45758;-59
2023/04/17 11:35:38;;;;;;;;;;;;;;;19.76;48.25;96378.55;611133;232;70528;-58
2023/04/17 11:38:16;;;;;;;;;;;;;;;19.79;48.28;96377.20;611007;231;64625;-59
2023/04/17 11:40:44;;;;;;;;;;;;;;;19.80;48.27;96381.45;611810;231;67725;-59
2023/04/17 11:43:12;;;;;;;;;;;;;;;19.80;48.35;96379.58;611659;231;64885;-59
2023/04/17 11:45:41;;;;;;;;;;;;;;;19.82;48.39;96369.44;611078;230;64499;-59
2023/04/17 11:48:09;;;;;;;;;;;;;;;19.83;48.50;96365.68;612108;230;67167;-59
2023/04/17 11:50:37;;;;;;;;;;;;;;;19.84;48.37;96356.63;611480;231;65059;-59
2023/04/17 11:53:08;;;;;;;;;;;;;;;19.86;48.42;96353.66;611178;230;45908;-59
2023/04/17 11:55:36;;;;;;;;;;;;;;;19.88;48.51;96351.52;610923;231;64961;-59
2023/04/17 11:58:06;;;;;;;;;;;;;;;19.90;48.47;96346.72;611436;230;62991;-59
2023/04/17 12:00:36;;;;;;;;;;;;;;;19.92;48.52;96347.23;612813;231;67345;-59
2023/04/17 12:03:05;;;;;;;;;;;;;;;19.93;48.46;96348.81;612536;230;65028;-59
2023/04/17 12:05:32;;;;;;;;;;;;;;;19.95;48.48;96344.01;610605;231;64944;-59
2023/04/17 12:08:04;;;;;;;;;;;;;;;19.99;48.55;96349.57;611044;232;67307;-59
2023/04/17 12:10:38;;;;;;;;;;;;;;;19.99;48.42;96345.02;612105;231;65001;-60
2023/04/17 12:13:05;;;;;;;;;;;;;;;20.01;48.49;96348.22;611593;231;62913;-61
2023/04/17 12:15:34;;;;;;;;;;;;;;;20.03;48.47;96338.06;611087;231;65153;-58
2023/04/17 12:18:08;;;;;;;;;;;;;;;20.06;48.54;96337.50;610903;232;67068;-60
2023/04/17 12:20:32;;;;;;;;;;;;;;;20.08;48.59;96332.69;610918;231;64915;-60
2023/04/17 12:23:01;;;;;;;;;;;;;;;20.11;48.55;96334.80;611241;232;67276;-60
2023/04/17 12:25:29;;;;;;;;;;;;;;;20.13;48.52;96329.98;610863;232;67294;-60
2023/04/17 12:27:58;;;;;;;;;;;;;;;20.14;48.49;96328.89;611030;232;65085;-60
2023/04/17 12:30:28;;;;;;;;;;;;;;;20.17;48.47;96317.66;611206;230;64876;-60
2023/04/17 12:32:56;;;;;;;;;;;;;;;20.21;48.56;96319.75;611785;231;66620;-60
2023/04/17 12:35:24;;;;;;;;;;;;;;;20.25;48.54;96326.13;611473;231;65042;-60
2023/04/17 12:37:51;;;;;;;;;;;;;;;20.27;48.48;96313.28;612260;231;67202;-60
2023/04/17 12:40:20;;;;;;;;;;;;;;;20.28;48.41;96310.34;611823;231;67329;-60
2023/04/17 12:42:48;;;;;;;;;;;;;;;20.31;48.39;96309.77;611252;232;64987;-60
2023/04/17 12:45:16;;;;;;;;;;;;;;;20.34;48.38;96311.87;611232;231;67185;-60
2023/04/17 12:47:43;;;;;;;;;;;;;;;20.36;48.35;96317.73;610980;231;64988;-60
2023/04/17 12:50:11;;;;;;;;;;;;;;;20.39;48.42;96311.03;611091;231;63812;-61
2023/04/17 12:52:40;;;;;;;;;;;;;;;20.42;48.25;96320.34;611989;231;67300;-60
2023/04/17 12:55:08;;;;;;;;;;;;;;;20.45;48.25;96314.44;611311;232;66702;-60